Arak, Iran
Current Conditions -  °F | °C
As of 11:00 PM on Friday 28 Nov 2014 (Local Time) from OICC Reporting Station
Clear Clear  
Wind Chill: 34°   Ceiling: Unl
Heat Index: 37°   Visibility: 6mi
Dew Point: 32°   Wind: 5mph
Humidity: 81%   Direction: 280°W
Pressure: 30.15"   Gusts: NA
Location:  34.1°N, 49.4°E
Report Text: OICC 282000Z 28004KT CAVOK 03/M00 Q1021 A3017
Loading
Personal Weather Stations






























Interactive Weather Map New forecast layout! Learn more

10-Day Weather Forecast

Advertisements
Track Severe Weather on mobile